createdAt,value
2017-08-11T00:00:01.760Z,15.31
2017-08-11T00:01:02.037Z,15.21
2017-08-11T00:02:02.014Z,15.25
2017-08-11T00:03:01.992Z,15.28
2017-08-11T00:04:01.967Z,15.18
2017-08-11T00:05:01.944Z,15.25
2017-08-11T00:06:01.919Z,15.21
2017-08-11T00:07:01.950Z,15.15
2017-08-11T00:08:01.873Z,15.28
2017-08-11T00:09:01.852Z,15.24
2017-08-11T00:10:01.535Z,15.24
2017-08-11T00:11:01.806Z,15.24
2017-08-11T00:12:01.490Z,15.19
2017-08-11T00:13:01.762Z,15.17
2017-08-11T00:14:01.746Z,15.17
2017-08-11T00:15:01.721Z,15.18
2017-08-11T00:16:01.693Z,15.19
2017-08-11T00:17:01.374Z,15.21
2017-08-11T00:18:01.354Z,15.17
2017-08-11T00:19:01.330Z,15.21
2017-08-11T00:20:01.609Z,15.24
2017-08-11T00:21:01.581Z,15.21
2017-08-11T00:22:01.564Z,15.22
2017-08-11T00:23:01.542Z,15.17
2017-08-11T00:24:01.515Z,15.24
2017-08-11T00:25:01.495Z,15.19
2017-08-11T00:26:01.470Z,15.19
2017-08-11T00:27:01.455Z,15.17
2017-08-11T00:28:01.453Z,15.19
2017-08-11T00:29:01.432Z,15.21
2017-08-11T00:30:01.381Z,15.24
2017-08-11T00:31:01.361Z,15.19
2017-08-11T00:32:01.046Z,15.18
2017-08-11T00:33:01.316Z,15.15
2017-08-11T00:34:01.296Z,15.19
2017-08-11T00:35:01.270Z,15.17
2017-08-11T00:36:01.264Z,15.21
2017-08-11T00:37:01.227Z,15.22
2017-08-11T00:38:01.206Z,15.33
2017-08-11T00:39:01.182Z,15.17
2017-08-11T00:40:01.163Z,15.17
2017-08-11T00:41:01.143Z,15.21
2017-08-11T00:42:01.117Z,15.25
2017-08-11T00:43:01.094Z,15.21
2017-08-11T00:44:01.074Z,15.18
2017-08-11T00:45:01.053Z,15.27
2017-08-11T00:46:00.753Z,15.21
2017-08-11T00:47:01.005Z,15.19
2017-08-11T00:48:00.688Z,15.15
2017-08-11T00:49:00.964Z,15.11
2017-08-11T00:50:00.939Z,15.21
2017-08-11T00:51:00.921Z,15.25
2017-08-11T00:52:00.895Z,15.15
2017-08-11T00:53:00.869Z,15.18
2017-08-11T00:54:00.848Z,15.28
2017-08-11T00:55:00.828Z,15.15
2017-08-11T00:56:00.803Z,15.15
2017-08-11T00:57:00.784Z,15.15
2017-08-11T00:58:00.764Z,15.19
2017-08-11T00:59:00.734Z,15.14
2017-08-11T01:00:00.722Z,15.15
2017-08-11T01:01:00.690Z,15.1
2017-08-11T01:02:00.674Z,15.07
2017-08-11T01:03:00.648Z,15.15
2017-08-11T01:04:00.632Z,15.04
2017-08-11T01:05:00.608Z,15.09
2017-08-11T01:06:00.581Z,14.96
2017-08-11T01:07:00.562Z,15.02
2017-08-11T01:08:00.538Z,14.92
2017-08-11T01:09:00.515Z,14.99
2017-08-11T01:10:00.497Z,14.94
2017-08-11T01:11:00.472Z,15
2017-08-11T01:12:00.444Z,14.91
2017-08-11T01:13:00.433Z,15.02
2017-08-11T01:14:00.403Z,14.88
2017-08-11T01:15:00.384Z,14.85
2017-08-11T01:16:00.064Z,14.86
2017-08-11T01:17:00.336Z,14.91
2017-08-11T01:18:00.016Z,14.85
2017-08-11T01:19:00.290Z,14.89
2017-08-11T01:20:00.289Z,14.84
2017-08-11T01:21:00.248Z,14.79
2017-08-11T01:22:00.227Z,14.77
2017-08-11T01:23:00.199Z,14.69
2017-08-11T01:24:00.179Z,14.73
2017-08-11T01:25:00.152Z,14.68
2017-08-11T01:26:00.140Z,14.78
2017-08-11T01:27:00.165Z,14.7
2017-08-11T01:28:00.089Z,14.68
2017-08-11T01:29:00.064Z,14.62
2017-08-11T01:30:00.041Z,14.68
2017-08-11T01:31:00.020Z,14.66
2017-08-11T01:31:59.996Z,14.59
2017-08-11T01:32:59.978Z,14.6
2017-08-11T01:33:59.954Z,14.63
2017-08-11T01:34:59.931Z,14.6
2017-08-11T01:35:59.612Z,14.55
2017-08-11T01:36:59.884Z,14.59
2017-08-11T01:37:59.862Z,14.6
2017-08-11T01:38:59.842Z,14.58
2017-08-11T01:39:59.815Z,14.6
2017-08-11T01:40:59.791Z,14.59
2017-08-11T01:41:59.769Z,14.63
2017-08-11T01:42:59.451Z,14.6
2017-08-11T01:43:59.725Z,14.65
2017-08-11T01:44:59.704Z,14.66
2017-08-11T01:45:59.680Z,14.6
2017-08-11T01:46:59.657Z,14.6
2017-08-11T01:47:59.634Z,14.59
2017-08-11T01:48:59.609Z,14.6
2017-08-11T01:49:59.588Z,14.6
2017-08-11T01:50:59.565Z,14.65
2017-08-11T01:51:59.543Z,14.62
2017-08-11T01:52:59.520Z,14.66
2017-08-11T01:53:59.203Z,14.63
2017-08-11T01:54:59.478Z,14.55
2017-08-11T01:55:59.447Z,14.6
2017-08-11T01:56:59.428Z,14.58
2017-08-11T01:57:59.408Z,14.58
2017-08-11T01:58:59.388Z,14.58
2017-08-11T01:59:59.384Z,14.59
2017-08-11T02:00:59.042Z,14.51
2017-08-11T02:01:59.318Z,14.54
2017-08-11T02:02:59.294Z,14.54
2017-08-11T02:03:59.273Z,14.59
2017-08-11T02:04:58.950Z,14.58
2017-08-11T02:05:59.222Z,14.53
2017-08-11T02:06:59.201Z,14.59
2017-08-11T02:07:59.179Z,14.65
2017-08-11T02:08:59.160Z,14.55
2017-08-11T02:09:58.834Z,14.54
2017-08-11T02:10:58.812Z,14.43
2017-08-11T02:11:58.792Z,14.51
2017-08-11T02:12:59.070Z,14.5
2017-08-11T02:13:59.039Z,14.45
2017-08-11T02:14:58.726Z,14.55
2017-08-11T02:15:58.699Z,14.5
2017-08-11T02:16:58.679Z,14.44
2017-08-11T02:17:58.652Z,14.37
2017-08-11T02:18:58.631Z,14.35
2017-08-11T02:19:58.910Z,14.35
2017-08-11T02:20:58.877Z,14.43
2017-08-11T02:21:58.862Z,14.36
2017-08-11T02:22:58.539Z,14.36
2017-08-11T02:23:58.841Z,14.37
2017-08-11T02:24:58.794Z,14.32
2017-08-11T02:25:58.766Z,14.35
2017-08-11T02:26:58.447Z,14.37
2017-08-11T02:27:58.717Z,14.28
2017-08-11T02:28:58.695Z,14.29
2017-08-11T02:29:58.677Z,14.29
2017-08-11T02:30:58.359Z,14.23
2017-08-11T02:31:58.631Z,14.2
2017-08-11T02:32:58.619Z,14.2
2017-08-11T02:33:58.584Z,14.25
2017-08-11T02:34:58.559Z,14.2
2017-08-11T02:35:58.537Z,14.26
2017-08-11T02:36:58.512Z,14.22
2017-08-11T02:37:58.489Z,14.33
2017-08-11T02:38:58.168Z,14.23
2017-08-11T02:39:58.442Z,14.32
2017-08-11T02:40:58.417Z,14.28
2017-08-11T02:41:58.096Z,14.25
2017-08-11T02:42:58.372Z,14.32
2017-08-11T02:43:58.377Z,14.3
2017-08-11T02:44:58.328Z,14.32
2017-08-11T02:45:58.303Z,14.36
2017-08-11T02:46:58.289Z,14.32
2017-08-11T02:47:58.270Z,14.4
2017-08-11T02:48:58.234Z,14.28
2017-08-11T02:49:58.213Z,14.32
2017-08-11T02:50:58.203Z,14.23
2017-08-11T02:51:57.870Z,14.29
2017-08-11T02:52:58.146Z,14.3
2017-08-11T02:53:58.117Z,14.25
2017-08-11T02:54:58.105Z,14.25
2017-08-11T02:55:58.078Z,14.23
2017-08-11T02:56:58.052Z,14.26
2017-08-11T02:57:58.030Z,14.2
2017-08-11T02:58:58.007Z,14.2
2017-08-11T02:59:57.983Z,14.25
2017-08-11T03:00:57.959Z,14.25
2017-08-11T03:01:57.945Z,14.17
2017-08-11T03:02:57.618Z,14.28
2017-08-11T03:03:57.890Z,14.17
2017-08-11T03:04:57.874Z,14.22
2017-08-11T03:05:57.846Z,14.26
2017-08-11T03:06:57.823Z,14.26
2017-08-11T03:07:57.796Z,14.26
2017-08-11T03:08:57.779Z,14.25
2017-08-11T03:09:57.749Z,14.18
2017-08-11T03:10:57.431Z,14.22
2017-08-11T03:11:57.406Z,14.2
2017-08-11T03:12:57.679Z,14.23
2017-08-11T03:13:57.656Z,14.25
2017-08-11T03:14:57.339Z,14.17
2017-08-11T03:15:57.320Z,14.18
2017-08-11T03:16:57.294Z,14.28
2017-08-11T03:17:57.562Z,14.23
2017-08-11T03:18:57.247Z,14.15
2017-08-11T03:19:57.228Z,14.28
2017-08-11T03:20:57.499Z,14.25
2017-08-11T03:21:57.477Z,14.18
2017-08-11T03:22:57.153Z,14.23
2017-08-11T03:23:57.429Z,14.23
2017-08-11T03:24:57.411Z,14.2
2017-08-11T03:25:57.395Z,14.15
2017-08-11T03:26:57.362Z,14.12
2017-08-11T03:27:57.337Z,14.15
2017-08-11T03:28:57.311Z,14.17
2017-08-11T03:29:56.992Z,14.14
2017-08-11T03:30:57.280Z,14.12
2017-08-11T03:31:57.248Z,14.12
2017-08-11T03:32:57.224Z,14.14
2017-08-11T03:33:57.197Z,14.1
2017-08-11T03:34:57.180Z,14.11
2017-08-11T03:35:57.157Z,14.11
2017-08-11T03:36:57.182Z,14.12
2017-08-11T03:37:56.809Z,14.08
2017-08-11T03:38:57.084Z,14.08
2017-08-11T03:39:56.763Z,14.05
2017-08-11T03:40:57.039Z,14.14
2017-08-11T03:41:57.014Z,14.07
2017-08-11T03:42:57.034Z,14.1
2017-08-11T03:43:56.969Z,14.08
2017-08-11T03:44:56.941Z,14.03
2017-08-11T03:45:56.924Z,14.11
2017-08-11T03:46:56.893Z,14
2017-08-11T03:47:56.876Z,14.05
2017-08-11T03:48:56.854Z,14.11
2017-08-11T03:49:56.530Z,14.1
2017-08-11T03:50:56.801Z,14.07
2017-08-11T03:51:56.781Z,14.11
2017-08-11T03:52:56.757Z,14.12
2017-08-11T03:53:56.731Z,14.15
2017-08-11T03:54:56.712Z,14.11
2017-08-11T03:55:56.684Z,14
2017-08-11T03:56:56.664Z,14.08
2017-08-11T03:57:56.640Z,13.97
2017-08-11T03:58:56.617Z,14.15
2017-08-11T03:59:56.328Z,14.18
2017-08-11T04:00:56.573Z,14.1
2017-08-11T04:01:56.255Z,14.18
2017-08-11T04:02:56.229Z,14.15
2017-08-11T04:03:56.508Z,14.15
2017-08-11T04:04:56.477Z,14.07
2017-08-11T04:05:56.456Z,14.17
2017-08-11T04:06:56.431Z,14.05
2017-08-11T04:07:56.408Z,14.07
2017-08-11T04:08:56.384Z,14.14
2017-08-11T04:09:56.368Z,14.11
2017-08-11T04:10:56.342Z,14.11
2017-08-11T04:11:56.313Z,14.12
2017-08-11T04:12:56.296Z,14.14
2017-08-11T04:13:56.273Z,14.1
2017-08-11T04:14:56.249Z,14.07
2017-08-11T04:15:56.223Z,14.1
2017-08-11T04:16:56.199Z,14.1
2017-08-11T04:17:56.190Z,14.08
2017-08-11T04:18:56.154Z,14.07
2017-08-11T04:19:55.832Z,14.15
2017-08-11T04:20:55.514Z,14.1
2017-08-11T04:21:56.083Z,14.18
2017-08-11T04:22:56.066Z,14.14
2017-08-11T04:23:56.040Z,14.08
2017-08-11T04:24:56.012Z,14.11
2017-08-11T04:25:55.995Z,14.14
2017-08-11T04:26:55.668Z,14.15
2017-08-11T04:27:55.945Z,14.11
2017-08-11T04:28:55.923Z,14.15
2017-08-11T04:29:55.904Z,14.17
2017-08-11T04:30:55.875Z,14.17
2017-08-11T04:31:55.851Z,14.22
2017-08-11T04:32:55.829Z,14.17
2017-08-11T04:33:55.512Z,14.26
2017-08-11T04:34:55.789Z,14.2
2017-08-11T04:35:55.819Z,14.15
2017-08-11T04:36:55.737Z,14.17
2017-08-11T04:37:55.723Z,14.11
2017-08-11T04:38:55.689Z,14.11
2017-08-11T04:39:55.669Z,14.22
2017-08-11T04:40:55.645Z,14.08
2017-08-11T04:41:55.622Z,14.17
2017-08-11T04:42:55.305Z,14.11
2017-08-11T04:43:55.578Z,14.12
2017-08-11T04:44:55.556Z,14.22
2017-08-11T04:45:55.532Z,14.17
2017-08-11T04:46:55.508Z,14.14
2017-08-11T04:47:55.514Z,14.11
2017-08-11T04:48:55.460Z,14.15
2017-08-11T04:49:55.436Z,14.14
2017-08-11T04:50:55.412Z,14.14
2017-08-11T04:51:55.388Z,14.12
2017-08-11T04:52:55.367Z,14.15
2017-08-11T04:53:55.049Z,14.14
2017-08-11T04:54:55.320Z,14.14
2017-08-11T04:55:55.302Z,14.17
2017-08-11T04:56:55.277Z,14.11
2017-08-11T04:57:55.253Z,14.11
2017-08-11T04:58:55.226Z,14.22
2017-08-11T04:59:54.913Z,14.18
2017-08-11T05:00:54.888Z,14.15
2017-08-11T05:01:55.159Z,14.23
2017-08-11T05:02:55.136Z,14.17
2017-08-11T05:03:54.822Z,14.17
2017-08-11T05:04:55.093Z,14.25
2017-08-11T05:05:55.069Z,14.23
2017-08-11T05:06:54.747Z,14.18
2017-08-11T05:07:55.019Z,14.25
2017-08-11T05:08:54.998Z,14.18
2017-08-11T05:09:54.974Z,14.2
2017-08-11T05:10:54.954Z,14.12
2017-08-11T05:11:54.931Z,14.26
2017-08-11T05:12:54.909Z,14.2
2017-08-11T05:13:54.589Z,14.18
2017-08-11T05:14:54.566Z,14.18
2017-08-11T05:15:54.839Z,14.23
2017-08-11T05:16:54.814Z,14.25
2017-08-11T05:17:54.791Z,14.22
2017-08-11T05:18:54.475Z,14.22
2017-08-11T05:19:54.773Z,14.23
2017-08-11T05:20:54.426Z,14.2
2017-08-11T05:21:54.400Z,14.23
2017-08-11T05:22:54.905Z,14.23
2017-08-11T05:23:54.657Z,14.25
2017-08-11T05:24:54.626Z,14.29
2017-08-11T05:25:54.606Z,14.23
2017-08-11T05:26:54.582Z,14.26
2017-08-11T05:27:54.561Z,14.28
2017-08-11T05:28:54.534Z,14.32
2017-08-11T05:29:54.511Z,14.4
2017-08-11T05:30:54.192Z,14.28
2017-08-11T05:31:54.466Z,14.36
2017-08-11T05:32:54.445Z,14.33
2017-08-11T05:33:54.425Z,14.4
2017-08-11T05:34:54.104Z,14.35
2017-08-11T05:35:54.078Z,14.4
2017-08-11T05:36:54.348Z,14.4
2017-08-11T05:37:54.329Z,14.37
2017-08-11T05:38:54.583Z,14.33
2017-08-11T05:39:54.292Z,14.35
2017-08-11T05:40:54.258Z,14.41
2017-08-11T05:41:54.233Z,14.36
2017-08-11T05:42:54.220Z,14.35
2017-08-11T05:43:54.445Z,14.37
2017-08-11T05:44:53.878Z,14.48
2017-08-11T05:45:54.146Z,14.43
2017-08-11T05:46:54.125Z,14.48
2017-08-11T05:47:54.101Z,14.5
2017-08-11T05:48:54.084Z,14.47
2017-08-11T05:49:54.057Z,14.48
2017-08-11T05:50:54.036Z,14.5
2017-08-11T05:51:54.010Z,14.51
2017-08-11T05:52:53.987Z,14.48
2017-08-11T05:53:53.970Z,14.51
2017-08-11T05:54:53.940Z,14.54
2017-08-11T05:55:53.918Z,14.45
2017-08-11T05:56:53.896Z,14.51
2017-08-11T05:57:53.877Z,14.51
2017-08-11T05:58:54.100Z,14.5
2017-08-11T05:59:53.830Z,14.54
2017-08-11T06:00:53.512Z,14.58
2017-08-11T06:01:53.788Z,14.51
2017-08-11T06:02:53.467Z,14.58
2017-08-11T06:03:53.757Z,14.6
2017-08-11T06:04:53.715Z,14.59
2017-08-11T06:05:53.693Z,14.59
2017-08-11T06:06:53.671Z,14.63
2017-08-11T06:07:53.360Z,14.58
2017-08-11T06:08:53.630Z,14.51
2017-08-11T06:09:53.604Z,14.63
2017-08-11T06:10:53.584Z,14.62
2017-08-11T06:11:53.562Z,14.63
2017-08-11T06:12:53.540Z,14.66
2017-08-11T06:13:53.521Z,14.63
2017-08-11T06:14:53.520Z,14.59
2017-08-11T06:15:53.469Z,14.55
2017-08-11T06:16:53.450Z,14.62
2017-08-11T06:17:53.427Z,14.58
2017-08-11T06:18:53.409Z,14.62
2017-08-11T06:19:53.529Z,14.63
2017-08-11T06:20:53.363Z,14.6
2017-08-11T06:21:53.337Z,14.73
2017-08-11T06:22:53.317Z,14.73
2017-08-11T06:23:53.290Z,14.68
2017-08-11T06:24:53.503Z,14.86
2017-08-11T06:25:53.252Z,14.94
2017-08-11T06:26:53.225Z,14.94
2017-08-11T06:27:53.208Z,15
2017-08-11T06:28:53.331Z,14.91
2017-08-11T06:29:53.161Z,14.94
2017-08-11T06:30:53.137Z,14.89
2017-08-11T06:31:53.119Z,14.97
2017-08-11T06:32:53.097Z,14.94
2017-08-11T06:33:53.077Z,14.88
2017-08-11T06:34:53.053Z,14.92
2017-08-11T06:35:53.062Z,14.85
2017-08-11T06:36:53.012Z,14.84
2017-08-11T06:37:52.986Z,14.85
2017-08-11T06:38:52.971Z,14.89
2017-08-11T06:39:52.952Z,14.81
2017-08-11T06:40:52.922Z,14.84
2017-08-11T06:41:52.904Z,14.84
2017-08-11T06:42:52.884Z,14.92
2017-08-11T06:43:52.862Z,14.86
2017-08-11T06:44:52.833Z,14.89
2017-08-11T06:45:52.516Z,14.86
2017-08-11T06:46:52.499Z,14.86
2017-08-11T06:47:52.775Z,14.85
2017-08-11T06:48:52.794Z,14.85
2017-08-11T06:49:52.726Z,14.85
2017-08-11T06:50:52.703Z,14.85
2017-08-11T06:51:52.683Z,14.92
2017-08-11T06:52:52.664Z,14.92
2017-08-11T06:53:52.639Z,14.88
2017-08-11T06:54:52.850Z,14.99
2017-08-11T06:55:53.218Z,14.99
2017-08-11T06:56:52.529Z,14.92
2017-08-11T06:57:53.416Z,14.99
2017-08-11T06:58:53.338Z,15.04
2017-08-11T06:59:52.844Z,15.15
2017-08-11T07:00:53.019Z,15.04
2017-08-11T07:01:53.428Z,14.92
2017-08-11T07:02:53.984Z,14.99
2017-08-11T07:03:52.686Z,15.07
2017-08-11T07:04:52.109Z,15.03
2017-08-11T07:05:52.389Z,15.18
2017-08-11T07:06:52.359Z,15.06
2017-08-11T07:07:52.526Z,15.14
2017-08-11T07:08:52.322Z,15.14
2017-08-11T07:09:52.300Z,15
2017-08-11T07:10:52.616Z,15.1
2017-08-11T07:11:52.249Z,15.06
2017-08-11T07:12:52.233Z,15.17
2017-08-11T07:13:52.212Z,15.17
2017-08-11T07:14:52.186Z,15.1
2017-08-11T07:15:52.205Z,15.18
2017-08-11T07:16:51.852Z,15.15
2017-08-11T07:17:52.122Z,15.14
2017-08-11T07:18:52.102Z,15.11
2017-08-11T07:19:52.090Z,15.14
2017-08-11T07:20:52.065Z,15.21
2017-08-11T07:21:51.511Z,15.18
2017-08-11T07:22:51.734Z,15.21
2017-08-11T07:23:51.997Z,15.17
2017-08-11T07:24:51.971Z,15.21
2017-08-11T07:25:51.953Z,15.21
2017-08-11T07:26:51.937Z,15.25
2017-08-11T07:27:51.912Z,15.24
2017-08-11T07:28:51.895Z,15.31
2017-08-11T07:29:51.867Z,15.17
2017-08-11T07:30:51.849Z,15.19
2017-08-11T07:31:51.536Z,15.22
2017-08-11T07:32:51.829Z,15.21
2017-08-11T07:33:51.786Z,15.19
2017-08-11T07:34:51.763Z,15.18
2017-08-11T07:35:51.738Z,15.27
2017-08-11T07:36:51.719Z,15.21
2017-08-11T07:37:51.695Z,15.27
2017-08-11T07:38:51.676Z,15.17
2017-08-11T07:39:51.651Z,15.15
2017-08-11T07:40:51.634Z,15.25
2017-08-11T07:41:51.616Z,15.22
2017-08-11T07:42:51.589Z,15.27
2017-08-11T07:43:50.974Z,15.28
2017-08-11T07:44:51.253Z,15.19
2017-08-11T07:45:51.224Z,15.21
2017-08-11T07:46:51.507Z,15.18
2017-08-11T07:47:51.486Z,15.19
2017-08-11T07:48:51.461Z,15.11
2017-08-11T07:49:51.140Z,15.24
2017-08-11T07:50:51.124Z,15.27
2017-08-11T07:51:51.102Z,15.28
2017-08-11T07:52:51.078Z,15.28
2017-08-11T07:53:51.056Z,15.27
2017-08-11T07:54:51.034Z,15.31
2017-08-11T07:55:51.012Z,15.25
2017-08-11T07:56:51.291Z,15.35
2017-08-11T07:57:51.267Z,15.35
2017-08-11T07:58:50.986Z,15.31
2017-08-11T07:59:51.225Z,15.36
2017-08-11T08:00:51.205Z,15.37
2017-08-11T08:01:51.195Z,15.29
2017-08-11T08:02:51.229Z,15.33
2017-08-11T08:03:51.137Z,15.35
2017-08-11T08:04:50.822Z,15.29
2017-08-11T08:05:51.094Z,15.42
2017-08-11T08:06:51.082Z,15.43
2017-08-11T08:07:51.056Z,15.43
2017-08-11T08:08:51.037Z,15.44
2017-08-11T08:09:51.013Z,15.39
2017-08-11T08:10:50.993Z,15.46
2017-08-11T08:11:50.969Z,15.52
2017-08-11T08:12:50.653Z,15.51
2017-08-11T08:13:50.930Z,15.37
2017-08-11T08:14:50.912Z,15.43
2017-08-11T08:15:50.889Z,15.43
2017-08-11T08:16:51.107Z,15.49
2017-08-11T08:17:50.848Z,15.49
2017-08-11T08:18:50.824Z,15.46
2017-08-11T08:19:50.803Z,15.58
2017-08-11T08:20:51.052Z,15.57
2017-08-11T08:21:50.763Z,15.61
2017-08-11T08:22:50.752Z,15.58
2017-08-11T08:23:50.730Z,15.64
2017-08-11T08:24:50.704Z,15.64
2017-08-11T08:25:50.685Z,15.67
2017-08-11T08:26:50.746Z,15.7
2017-08-11T08:27:50.634Z,15.73
2017-08-11T08:28:50.617Z,15.7
2017-08-11T08:29:50.595Z,15.7
2017-08-11T08:30:50.580Z,15.7
2017-08-11T08:31:50.556Z,15.79
2017-08-11T08:32:50.534Z,15.73
2017-08-11T08:33:50.519Z,15.75
2017-08-11T08:34:50.493Z,15.73
2017-08-11T08:35:50.477Z,15.7
2017-08-11T08:36:50.154Z,15.65
2017-08-11T08:37:50.134Z,15.67
2017-08-11T08:38:50.409Z,15.68
2017-08-11T08:39:50.095Z,15.7
2017-08-11T08:40:50.076Z,15.57
2017-08-11T08:41:50.055Z,15.67
2017-08-11T08:42:50.333Z,15.61
2017-08-11T08:43:50.013Z,15.68
2017-08-11T08:44:49.692Z,15.68
2017-08-11T08:45:49.974Z,15.61
2017-08-11T08:46:49.654Z,15.64
2017-08-11T08:47:50.224Z,15.61
2017-08-11T08:48:50.241Z,15.61
2017-08-11T08:49:50.187Z,15.73
2017-08-11T08:50:50.167Z,15.7
2017-08-11T08:51:50.145Z,15.62
2017-08-11T08:52:49.531Z,15.77
2017-08-11T08:53:50.106Z,15.62
2017-08-11T08:54:49.789Z,15.62
2017-08-11T08:55:50.061Z,15.7
2017-08-11T08:56:50.044Z,15.76
2017-08-11T08:57:50.025Z,15.73
2017-08-11T08:58:49.999Z,15.8
2017-08-11T08:59:49.681Z,15.79
2017-08-11T09:00:49.666Z,15.84
2017-08-11T09:01:49.948Z,15.84
2017-08-11T09:02:49.922Z,15.83
2017-08-11T09:03:49.603Z,15.9
2017-08-11T09:04:49.876Z,15.9
2017-08-11T09:05:49.564Z,15.91
2017-08-11T09:06:49.842Z,15.9
2017-08-11T09:07:49.825Z,15.84
2017-08-11T09:08:49.502Z,15.77
2017-08-11T09:09:49.780Z,15.77
2017-08-11T09:10:49.762Z,15.79
2017-08-11T09:11:49.740Z,15.83
2017-08-11T09:12:49.726Z,15.8
2017-08-11T09:13:49.709Z,15.77
2017-08-11T09:14:49.682Z,15.84
2017-08-11T09:15:49.665Z,15.79
2017-08-11T09:16:49.641Z,15.77
2017-08-11T09:17:49.623Z,15.77
2017-08-11T09:18:49.602Z,15.83
2017-08-11T09:19:49.588Z,15.88
2017-08-11T09:20:49.561Z,15.84
2017-08-11T09:21:49.544Z,15.86
2017-08-11T09:22:49.226Z,16
2017-08-11T09:23:49.501Z,15.98
2017-08-11T09:24:49.182Z,15.98
2017-08-11T09:25:49.162Z,16.02
2017-08-11T09:26:49.447Z,16.12
2017-08-11T09:27:50.182Z,16.02
2017-08-11T09:28:49.398Z,16
2017-08-11T09:29:49.384Z,15.88
2017-08-11T09:30:49.367Z,15.95
2017-08-11T09:31:49.348Z,15.95
2017-08-11T09:32:49.323Z,16.01
2017-08-11T09:33:49.302Z,15.95
2017-08-11T09:34:49.284Z,15.9
2017-08-11T09:35:49.256Z,15.83
2017-08-11T09:36:48.948Z,15.88
2017-08-11T09:37:49.224Z,15.77
2017-08-11T09:38:49.202Z,15.77
2017-08-11T09:39:49.184Z,15.77
2017-08-11T09:40:49.161Z,15.8
2017-08-11T09:41:48.846Z,15.83
2017-08-11T09:42:49.311Z,15.9
2017-08-11T09:43:49.103Z,15.9
2017-08-11T09:44:49.081Z,16.01
2017-08-11T09:45:49.063Z,15.91
2017-08-11T09:46:49.090Z,15.95
2017-08-11T09:47:48.734Z,16
2017-08-11T09:48:48.704Z,16.02
2017-08-11T09:49:48.664Z,16.08
2017-08-11T09:50:48.668Z,16.08
2017-08-11T09:51:48.941Z,16.08
2017-08-11T09:52:48.926Z,16.08
2017-08-11T09:53:48.901Z,16.16
2017-08-11T09:54:48.881Z,16.2
2017-08-11T09:55:48.866Z,16.24
2017-08-11T09:56:48.594Z,16.24
2017-08-11T09:57:48.527Z,16.24
2017-08-11T09:58:48.804Z,16.39
2017-08-11T09:59:48.787Z,16.32
2017-08-11T10:00:48.765Z,16.36
2017-08-11T10:01:48.151Z,16.41
2017-08-11T10:02:48.725Z,16.35
2017-08-11T10:03:48.709Z,16.42
2017-08-11T10:04:49.213Z,16.42
2017-08-11T10:05:48.824Z,16.38
2017-08-11T10:06:48.647Z,16.35
2017-08-11T10:07:48.632Z,16.38
2017-08-11T10:08:48.316Z,16.32
2017-08-11T10:09:48.992Z,16.38
2017-08-11T10:10:48.290Z,16.43
2017-08-11T10:11:49.856Z,16.42
2017-08-11T10:12:49.553Z,16.43
2017-08-11T10:13:48.510Z,16.42
2017-08-11T10:14:48.197Z,16.41
2017-08-11T10:15:48.474Z,16.39
2017-08-11T10:16:48.158Z,16.53
2017-08-11T10:17:48.140Z,16.53
2017-08-11T10:18:48.419Z,16.53
2017-08-11T10:19:48.399Z,16.56
2017-08-11T10:20:48.382Z,16.56
2017-08-11T10:21:48.313Z,16.57
2017-08-11T10:22:48.342Z,16.6
2017-08-11T10:23:48.325Z,16.66
2017-08-11T10:24:48.303Z,16.69
2017-08-11T10:25:48.284Z,16.69
2017-08-11T10:26:48.270Z,16.76
2017-08-11T10:27:48.250Z,16.74
2017-08-11T10:28:48.229Z,16.83
2017-08-11T10:29:48.208Z,16.89
2017-08-11T10:30:48.192Z,16.76
2017-08-11T10:31:48.170Z,16.86
2017-08-11T10:32:48.181Z,16.83
2017-08-11T10:33:48.137Z,16.78
2017-08-11T10:34:48.115Z,16.71
2017-08-11T10:35:48.098Z,16.72
2017-08-11T10:36:48.080Z,16.74
2017-08-11T10:37:48.063Z,16.75
2017-08-11T10:38:48.040Z,16.74
2017-08-11T10:39:48.026Z,16.75
2017-08-11T10:40:48.006Z,16.71
2017-08-11T10:41:47.983Z,16.71
2017-08-11T10:42:47.670Z,16.69
2017-08-11T10:43:47.949Z,16.65
2017-08-11T10:44:47.633Z,16.6
2017-08-11T10:45:47.622Z,16.66
2017-08-11T10:46:47.896Z,16.68
2017-08-11T10:47:47.870Z,16.64
2017-08-11T10:48:47.860Z,16.6
2017-08-11T10:49:47.837Z,16.58
2017-08-11T10:50:47.816Z,16.72
2017-08-11T10:51:47.799Z,16.66
2017-08-11T10:52:47.784Z,16.72
2017-08-11T10:53:47.768Z,16.65
2017-08-11T10:54:47.748Z,16.71
2017-08-11T10:55:47.729Z,16.69
2017-08-11T10:56:47.706Z,16.75
2017-08-11T10:57:47.689Z,16.69
2017-08-11T10:58:47.675Z,16.74
2017-08-11T10:59:47.654Z,16.81
2017-08-11T11:00:47.634Z,16.69
2017-08-11T11:01:47.621Z,16.69
2017-08-11T11:02:47.598Z,16.69
2017-08-11T11:03:47.573Z,16.68
2017-08-11T11:04:47.556Z,16.74
2017-08-11T11:05:47.241Z,16.71
2017-08-11T11:06:47.523Z,16.66
2017-08-11T11:07:47.503Z,16.61
2017-08-11T11:08:47.479Z,16.61
2017-08-11T11:09:47.463Z,16.57
2017-08-11T11:10:47.438Z,16.56
2017-08-11T11:11:47.428Z,16.49
2017-08-11T11:12:47.459Z,16.5
2017-08-11T11:13:47.087Z,16.6
2017-08-11T11:14:47.367Z,16.54
2017-08-11T11:15:47.348Z,16.58
2017-08-11T11:16:47.326Z,16.56
2017-08-11T11:17:47.547Z,16.53
2017-08-11T11:18:47.284Z,16.65
2017-08-11T11:19:47.268Z,16.68
2017-08-11T11:20:47.248Z,16.57
2017-08-11T11:21:47.230Z,16.6
2017-08-11T11:22:47.207Z,16.6
2017-08-11T11:23:47.193Z,16.57
2017-08-11T11:24:47.171Z,16.56
2017-08-11T11:25:46.857Z,16.58
2017-08-11T11:26:47.130Z,16.51
2017-08-11T11:27:46.815Z,16.5
2017-08-11T11:28:47.092Z,16.46
2017-08-11T11:29:46.782Z,16.49
2017-08-11T11:30:47.055Z,16.46
2017-08-11T11:31:46.737Z,16.46
2017-08-11T11:32:46.715Z,16.51
2017-08-11T11:33:46.696Z,16.5
2017-08-11T11:34:46.679Z,16.47
2017-08-11T11:35:46.695Z,16.49
2017-08-11T11:36:46.932Z,16.53
2017-08-11T11:37:46.914Z,16.41
2017-08-11T11:38:46.600Z,16.41
2017-08-11T11:39:46.880Z,16.38
2017-08-11T11:40:46.856Z,16.32
2017-08-11T11:41:46.840Z,16.38
2017-08-11T11:42:46.226Z,16.36
2017-08-11T11:43:46.201Z,16.23
2017-08-11T11:44:46.481Z,16.31
2017-08-11T11:45:46.457Z,16.33
2017-08-11T11:46:46.441Z,16.31
2017-08-11T11:47:46.713Z,16.33
2017-08-11T11:48:46.700Z,16.35
2017-08-11T11:49:46.385Z,16.29
2017-08-11T11:50:46.394Z,16.23
2017-08-11T11:51:46.637Z,16.28
2017-08-11T11:52:46.322Z,16.23
2017-08-11T11:53:46.595Z,16.23
2017-08-11T11:54:46.580Z,16.24
2017-08-11T11:55:46.694Z,16.12
2017-08-11T11:56:46.534Z,16.2
2017-08-11T11:57:46.514Z,16.13
2017-08-11T11:58:46.194Z,16.09
2017-08-11T11:59:46.179Z,16.04
2017-08-11T12:00:46.457Z,16.02
2017-08-11T12:01:46.135Z,15.94
2017-08-11T12:02:46.117Z,15.97
2017-08-11T12:03:46.393Z,15.84
2017-08-11T12:04:46.071Z,15.94
2017-08-11T12:05:46.049Z,15.92
2017-08-11T12:06:46.029Z,15.9
2017-08-11T12:07:46.307Z,15.88
2017-08-11T12:08:46.283Z,15.92
2017-08-11T12:09:46.263Z,15.91
2017-08-11T12:10:46.242Z,15.83
2017-08-11T12:11:46.218Z,15.88
2017-08-11T12:12:46.199Z,15.88
2017-08-11T12:13:46.181Z,15.88
2017-08-11T12:14:45.860Z,15.84
2017-08-11T12:15:46.137Z,15.88
2017-08-11T12:16:46.119Z,15.95
2017-08-11T12:17:45.794Z,15.91
2017-08-11T12:18:46.083Z,15.86
2017-08-11T12:19:45.762Z,15.91
2017-08-11T12:20:46.030Z,15.98
2017-08-11T12:21:46.014Z,15.88
2017-08-11T12:22:45.988Z,15.95
2017-08-11T12:23:45.967Z,16
2017-08-11T12:24:45.944Z,15.97
2017-08-11T12:25:45.627Z,15.92
2017-08-11T12:26:45.903Z,15.97
2017-08-11T12:27:45.882Z,15.95
2017-08-11T12:28:45.864Z,15.88
2017-08-11T12:29:45.839Z,15.91
2017-08-11T12:30:45.816Z,15.83
2017-08-11T12:31:45.798Z,15.84
2017-08-11T12:32:45.771Z,15.7
2017-08-11T12:33:45.865Z,15.73
2017-08-11T12:34:45.730Z,15.77
2017-08-11T12:35:45.412Z,15.75
2017-08-11T12:36:45.689Z,15.67
2017-08-11T12:37:45.674Z,15.68
2017-08-11T12:38:45.647Z,15.64
2017-08-11T12:39:45.620Z,15.64
2017-08-11T12:40:45.309Z,15.59
2017-08-11T12:41:45.579Z,15.59
2017-08-11T12:42:45.558Z,15.65
2017-08-11T12:43:45.538Z,15.68
2017-08-11T12:44:45.520Z,15.52
2017-08-11T12:45:45.495Z,15.57
2017-08-11T12:46:45.518Z,15.55
2017-08-11T12:47:45.495Z,15.61
2017-08-11T12:48:45.441Z,15.67
2017-08-11T12:49:45.414Z,15.62
2017-08-11T12:50:45.115Z,15.77
2017-08-11T12:51:45.368Z,15.7
2017-08-11T12:52:45.053Z,15.77
2017-08-11T12:53:45.331Z,15.82
2017-08-11T12:54:45.008Z,15.82
2017-08-11T12:55:45.282Z,15.9